sensor_id;sensor_type;location;lat;lon;timestamp;temperature;humidity
27026;DHT22;14565;48.626;8.978;2022-10-31T00:02:00;10.60;99.90
27026;DHT22;14565;48.626;8.978;2022-10-31T00:04:26;10.60;99.90
27026;DHT22;14565;48.626;8.978;2022-10-31T00:06:52;10.60;99.90
27026;DHT22;14565;48.626;8.978;2022-10-31T00:09:17;10.60;99.90
27026;DHT22;14565;48.626;8.978;2022-10-31T00:11:43;10.50;99.90
27026;DHT22;14565;48.626;8.978;2022-10-31T00:14:08;10.40;99.90
27026;DHT22;14565;48.626;8.978;2022-10-31T00:16:34;10.40;99.90
27026;DHT22;14565;48.626;8.978;2022-10-31T00:19:02;10.40;99.90
27026;DHT22;14565;48.626;8.978;2022-10-31T00:21:29;10.30;99.90
27026;DHT22;14565;48.626;8.978;2022-10-31T00:23:57;10.20;99.90
27026;DHT22;14565;48.626;8.978;2022-10-31T00:26:23;10.20;99.90
27026;DHT22;14565;48.626;8.978;2022-10-31T00:28:48;10.30;99.90
27026;DHT22;14565;48.626;8.978;2022-10-31T00:31:14;10.30;99.90
27026;DHT22;14565;48.626;8.978;2022-10-31T00:33:41;10.30;99.90
27026;DHT22;14565;48.626;8.978;2022-10-31T00:36:10;10.30;99.90
27026;DHT22;14565;48.626;8.978;2022-10-31T00:38:36;10.20;99.90
27026;DHT22;14565;48.626;8.978;2022-10-31T00:41:02;10.20;99.90
27026;DHT22;14565;48.626;8.978;2022-10-31T00:43:28;10.20;99.90
27026;DHT22;14565;48.626;8.978;2022-10-31T00:45:53;10.20;99.90
27026;DHT22;14565;48.626;8.978;2022-10-31T00:48:19;10.20;99.90
27026;DHT22;14565;48.626;8.978;2022-10-31T00:50:45;10.20;99.90
27026;DHT22;14565;48.626;8.978;2022-10-31T00:53:11;10.20;99.90
27026;DHT22;14565;48.626;8.978;2022-10-31T00:55:36;10.20;99.90
27026;DHT22;14565;48.626;8.978;2022-10-31T00:58:02;10.20;99.90
27026;DHT22;14565;48.626;8.978;2022-10-31T01:00:28;10.20;99.90
27026;DHT22;14565;48.626;8.978;2022-10-31T01:02:53;9.90;99.90
27026;DHT22;14565;48.626;8.978;2022-10-31T01:05:19;9.90;99.90
27026;DHT22;14565;48.626;8.978;2022-10-31T01:07:45;9.90;99.90
27026;DHT22;14565;48.626;8.978;2022-10-31T01:10:11;9.90;99.90
27026;DHT22;14565;48.626;8.978;2022-10-31T01:12:41;9.90;99.90
27026;DHT22;14565;48.626;8.978;2022-10-31T01:15:08;10.00;99.90
27026;DHT22;14565;48.626;8.978;2022-10-31T01:17:35;9.80;99.90
27026;DHT22;14565;48.626;8.978;2022-10-31T01:20:00;9.80;99.90
27026;DHT22;14565;48.626;8.978;2022-10-31T01:22:26;9.70;99.90
27026;DHT22;14565;48.626;8.978;2022-10-31T01:24:52;9.70;99.90
27026;DHT22;14565;48.626;8.978;2022-10-31T01:27:17;9.80;99.90
27026;DHT22;14565;48.626;8.978;2022-10-31T01:29:43;9.70;99.90
27026;DHT22;14565;48.626;8.978;2022-10-31T01:32:08;9.80;99.90
27026;DHT22;14565;48.626;8.978;2022-10-31T01:34:34;9.80;99.90
27026;DHT22;14565;48.626;8.978;2022-10-31T01:37:00;9.80;99.90
27026;DHT22;14565;48.626;8.978;2022-10-31T01:39:25;9.80;99.90
27026;DHT22;14565;48.626;8.978;2022-10-31T01:41:53;9.80;99.90
27026;DHT22;14565;48.626;8.978;2022-10-31T01:51:56;9.80;99.90
27026;DHT22;14565;48.626;8.978;2022-10-31T01:54:26;9.90;99.90
27026;DHT22;14565;48.626;8.978;2022-10-31T01:56:56;9.80;99.90
27026;DHT22;14565;48.626;8.978;2022-10-31T01:59:25;9.90;99.90
27026;DHT22;14565;48.626;8.978;2022-10-31T02:01:53;9.80;99.90
27026;DHT22;14565;48.626;8.978;2022-10-31T02:04:19;9.90;99.90
27026;DHT22;14565;48.626;8.978;2022-10-31T02:06:49;9.80;99.90
27026;DHT22;14565;48.626;8.978;2022-10-31T02:09:17;9.70;99.90
27026;DHT22;14565;48.626;8.978;2022-10-31T02:11:50;9.50;99.90
27026;DHT22;14565;48.626;8.978;2022-10-31T02:14:16;9.50;99.90
27026;DHT22;14565;48.626;8.978;2022-10-31T02:16:42;9.50;99.90
27026;DHT22;14565;48.626;8.978;2022-10-31T02:19:09;9.50;99.90
27026;DHT22;14565;48.626;8.978;2022-10-31T02:21:56;9.50;99.90
27026;DHT22;14565;48.626;8.978;2022-10-31T02:27:27;9.50;99.90
27026;DHT22;14565;48.626;8.978;2022-10-31T02:30:27;9.50;99.90
27026;DHT22;14565;48.626;8.978;2022-10-31T02:49:32;9.30;99.90
27026;DHT22;14565;48.626;8.978;2022-10-31T02:51:58;9.30;99.90
27026;DHT22;14565;48.626;8.978;2022-10-31T02:54:26;9.20;99.90
27026;DHT22;14565;48.626;8.978;2022-10-31T02:57:05;9.10;99.90
27026;DHT22;14565;48.626;8.978;2022-10-31T02:59:33;9.10;99.90
27026;DHT22;14565;48.626;8.978;2022-10-31T03:02:07;9.10;99.90
27026;DHT22;14565;48.626;8.978;2022-10-31T03:15:39;8.80;99.90
27026;DHT22;14565;48.626;8.978;2022-10-31T03:18:23;8.80;99.90
27026;DHT22;14565;48.626;8.978;2022-10-31T03:21:13;8.80;99.90
27026;DHT22;14565;48.626;8.978;2022-10-31T03:23:40;8.90;99.90
27026;DHT22;14565;48.626;8.978;2022-10-31T03:26:08;8.90;99.90
27026;DHT22;14565;48.626;8.978;2022-10-31T03:28:44;8.90;99.90
27026;DHT22;14565;48.626;8.978;2022-10-31T03:31:13;8.90;99.90
27026;DHT22;14565;48.626;8.978;2022-10-31T03:33:41;8.90;99.90
27026;DHT22;14565;48.626;8.978;2022-10-31T03:36:08;8.90;99.90
27026;DHT22;14565;48.626;8.978;2022-10-31T03:38:36;8.80;99.90
27026;DHT22;14565;48.626;8.978;2022-10-31T03:41:04;8.80;99.90
27026;DHT22;14565;48.626;8.978;2022-10-31T03:43:35;8.80;99.90
27026;DHT22;14565;48.626;8.978;2022-10-31T03:46:03;8.90;99.90
27026;DHT22;14565;48.626;8.978;2022-10-31T03:48:29;8.90;99.90
27026;DHT22;14565;48.626;8.978;2022-10-31T03:53:57;8.90;99.90
27026;DHT22;14565;48.626;8.978;2022-10-31T03:56:37;8.80;99.90
27026;DHT22;14565;48.626;8.978;2022-10-31T03:59:23;8.80;99.90
27026;DHT22;14565;48.626;8.978;2022-10-31T04:01:53;8.80;99.90
27026;DHT22;14565;48.626;8.978;2022-10-31T04:04:21;8.70;99.90
27026;DHT22;14565;48.626;8.978;2022-10-31T04:06:49;8.80;99.90
27026;DHT22;14565;48.626;8.978;2022-10-31T04:09:16;8.90;99.90
27026;DHT22;14565;48.626;8.978;2022-10-31T04:11:51;9.00;99.90
27026;DHT22;14565;48.626;8.978;2022-10-31T04:14:18;9.00;99.90
27026;DHT22;14565;48.626;8.978;2022-10-31T04:16:44;9.00;99.90
27026;DHT22;14565;48.626;8.978;2022-10-31T04:19:11;8.80;99.90
27026;DHT22;14565;48.626;8.978;2022-10-31T04:21:37;8.90;99.90
27026;DHT22;14565;48.626;8.978;2022-10-31T04:24:03;8.90;99.90
27026;DHT22;14565;48.626;8.978;2022-10-31T04:26:29;8.90;99.90
27026;DHT22;14565;48.626;8.978;2022-10-31T04:28:55;8.90;99.90
27026;DHT22;14565;48.626;8.978;2022-10-31T04:31:20;8.80;99.90
27026;DHT22;14565;48.626;8.978;2022-10-31T04:33:46;8.80;99.90
27026;DHT22;14565;48.626;8.978;2022-10-31T04:36:12;8.80;99.90
27026;DHT22;14565;48.626;8.978;2022-10-31T04:38:37;8.70;99.90
27026;DHT22;14565;48.626;8.978;2022-10-31T04:41:03;8.70;99.90
27026;DHT22;14565;48.626;8.978;2022-10-31T04:43:29;8.60;99.90
27026;DHT22;14565;48.626;8.978;2022-10-31T04:45:54;8.60;99.90
27026;DHT22;14565;48.626;8.978;2022-10-31T04:48:20;8.60;99.90
27026;DHT22;14565;48.626;8.978;2022-10-31T04:50:45;8.50;99.90
27026;DHT22;14565;48.626;8.978;2022-10-31T04:53:11;8.50;99.90
27026;DHT22;14565;48.626;8.978;2022-10-31T04:55:37;8.50;99.90
27026;DHT22;14565;48.626;8.978;2022-10-31T04:58:03;8.50;99.90
27026;DHT22;14565;48.626;8.978;2022-10-31T05:00:29;8.50;99.90
27026;DHT22;14565;48.626;8.978;2022-10-31T05:02:57;8.40;99.90
27026;DHT22;14565;48.626;8.978;2022-10-31T05:05:25;8.50;99.90
27026;DHT22;14565;48.626;8.978;2022-10-31T05:07:52;8.60;99.90
27026;DHT22;14565;48.626;8.978;2022-10-31T05:10:23;8.50;99.90
27026;DHT22;14565;48.626;8.978;2022-10-31T05:12:55;8.60;99.90
27026;DHT22;14565;48.626;8.978;2022-10-31T05:15:22;8.50;99.90
27026;DHT22;14565;48.626;8.978;2022-10-31T05:17:48;8.40;99.90
27026;DHT22;14565;48.626;8.978;2022-10-31T05:20:15;8.30;99.90
27026;DHT22;14565;48.626;8.978;2022-10-31T05:22:43;8.30;99.90
27026;DHT22;14565;48.626;8.978;2022-10-31T05:25:09;8.30;99.90
27026;DHT22;14565;48.626;8.978;2022-10-31T05:27:34;8.30;99.90
27026;DHT22;14565;48.626;8.978;2022-10-31T05:30:00;8.30;99.90
27026;DHT22;14565;48.626;8.978;2022-10-31T05:32:26;8.30;99.90
27026;DHT22;14565;48.626;8.978;2022-10-31T05:34:51;8.40;99.90
27026;DHT22;14565;48.626;8.978;2022-10-31T05:37:17;8.40;99.90
27026;DHT22;14565;48.626;8.978;2022-10-31T05:39:42;8.40;99.90
27026;DHT22;14565;48.626;8.978;2022-10-31T05:42:08;8.30;99.90
27026;DHT22;14565;48.626;8.978;2022-10-31T05:44:34;8.30;99.90
27026;DHT22;14565;48.626;8.978;2022-10-31T05:46:59;8.30;99.90
27026;DHT22;14565;48.626;8.978;2022-10-31T05:49:25;8.40;99.90
27026;DHT22;14565;48.626;8.978;2022-10-31T05:51:51;8.40;99.90
27026;DHT22;14565;48.626;8.978;2022-10-31T05:54:17;8.30;99.90
27026;DHT22;14565;48.626;8.978;2022-10-31T05:56:43;8.30;99.90
27026;DHT22;14565;48.626;8.978;2022-10-31T05:59:08;8.30;99.90
27026;DHT22;14565;48.626;8.978;2022-10-31T06:01:34;8.20;99.90
27026;DHT22;14565;48.626;8.978;2022-10-31T06:03:59;8.20;99.90
27026;DHT22;14565;48.626;8.978;2022-10-31T06:06:25;8.10;99.90
27026;DHT22;14565;48.626;8.978;2022-10-31T06:08:51;8.00;99.90
27026;DHT22;14565;48.626;8.978;2022-10-31T06:11:16;8.00;99.90
27026;DHT22;14565;48.626;8.978;2022-10-31T06:13:42;8.00;99.90
27026;DHT22;14565;48.626;8.978;2022-10-31T06:16:07;8.10;99.90
27026;DHT22;14565;48.626;8.978;2022-10-31T06:18:33;8.10;99.90
27026;DHT22;14565;48.626;8.978;2022-10-31T06:20:59;8.00;99.90
27026;DHT22;14565;48.626;8.978;2022-10-31T06:23:24;8.10;99.90
27026;DHT22;14565;48.626;8.978;2022-10-31T06:25:50;8.20;99.90
27026;DHT22;14565;48.626;8.978;2022-10-31T06:28:16;8.30;99.90
27026;DHT22;14565;48.626;8.978;2022-10-31T06:30:42;8.40;99.90
27026;DHT22;14565;48.626;8.978;2022-10-31T06:33:07;8.40;99.90
27026;DHT22;14565;48.626;8.978;2022-10-31T06:35:33;8.30;99.90
27026;DHT22;14565;48.626;8.978;2022-10-31T06:37:59;8.30;99.90
27026;DHT22;14565;48.626;8.978;2022-10-31T06:40:24;8.30;99.90
27026;DHT22;14565;48.626;8.978;2022-10-31T06:43:00;8.30;99.90
27026;DHT22;14565;48.626;8.978;2022-10-31T06:45:27;8.30;99.90
27026;DHT22;14565;48.626;8.978;2022-10-31T06:47:53;8.40;99.90
27026;DHT22;14565;48.626;8.978;2022-10-31T06:50:20;8.60;99.90
27026;DHT22;14565;48.626;8.978;2022-10-31T06:52:53;8.60;99.90
27026;DHT22;14565;48.626;8.978;2022-10-31T06:55:19;8.60;99.90
27026;DHT22;14565;48.626;8.978;2022-10-31T06:57:52;8.60;99.90
27026;DHT22;14565;48.626;8.978;2022-10-31T07:00:18;8.60;99.90
27026;DHT22;14565;48.626;8.978;2022-10-31T07:02:44;8.60;99.90
27026;DHT22;14565;48.626;8.978;2022-10-31T07:05:17;8.70;99.90
27026;DHT22;14565;48.626;8.978;2022-10-31T07:07:43;8.80;99.90
27026;DHT22;14565;48.626;8.978;2022-10-31T07:10:08;8.90;99.90
27026;DHT22;14565;48.626;8.978;2022-10-31T07:12:34;9.00;99.90
27026;DHT22;14565;48.626;8.978;2022-10-31T07:15:00;9.10;99.90
27026;DHT22;14565;48.626;8.978;2022-10-31T07:17:25;9.10;99.90
27026;DHT22;14565;48.626;8.978;2022-10-31T07:19:51;9.10;99.90
27026;DHT22;14565;48.626;8.978;2022-10-31T07:22:16;9.20;99.90
27026;DHT22;14565;48.626;8.978;2022-10-31T07:24:42;9.30;99.90
27026;DHT22;14565;48.626;8.978;2022-10-31T07:27:08;9.40;99.90
27026;DHT22;14565;48.626;8.978;2022-10-31T07:29:33;9.50;99.90
27026;DHT22;14565;48.626;8.978;2022-10-31T07:31:59;9.60;99.90
27026;DHT22;14565;48.626;8.978;2022-10-31T07:34:25;9.70;99.90
27026;DHT22;14565;48.626;8.978;2022-10-31T07:36:50;9.80;99.90
27026;DHT22;14565;48.626;8.978;2022-10-31T07:39:17;9.80;99.90
27026;DHT22;14565;48.626;8.978;2022-10-31T07:41:42;10.10;99.90
27026;DHT22;14565;48.626;8.978;2022-10-31T07:44:08;10.10;99.90
27026;DHT22;14565;48.626;8.978;2022-10-31T07:46:34;10.20;99.90
27026;DHT22;14565;48.626;8.978;2022-10-31T07:48:59;10.10;99.90
27026;DHT22;14565;48.626;8.978;2022-10-31T07:51:25;9.60;99.90
27026;DHT22;14565;48.626;8.978;2022-10-31T07:53:51;9.40;99.90
27026;DHT22;14565;48.626;8.978;2022-10-31T07:56:17;9.60;99.90
27026;DHT22;14565;48.626;8.978;2022-10-31T07:58:43;9.80;99.90
27026;DHT22;14565;48.626;8.978;2022-10-31T08:01:08;9.90;99.90
27026;DHT22;14565;48.626;8.978;2022-10-31T08:03:34;10.10;99.90
27026;DHT22;14565;48.626;8.978;2022-10-31T08:06:00;10.40;99.90
27026;DHT22;14565;48.626;8.978;2022-10-31T08:08:25;10.60;99.90
27026;DHT22;14565;48.626;8.978;2022-10-31T08:10:53;10.90;99.90
27026;DHT22;14565;48.626;8.978;2022-10-31T08:13:19;11.30;99.90
27026;DHT22;14565;48.626;8.978;2022-10-31T08:15:45;11.30;99.90
27026;DHT22;14565;48.626;8.978;2022-10-31T08:18:15;11.30;99.90
27026;DHT22;14565;48.626;8.978;2022-10-31T08:20:42;11.10;99.90
27026;DHT22;14565;48.626;8.978;2022-10-31T08:23:09;11.00;99.90
27026;DHT22;14565;48.626;8.978;2022-10-31T08:25:36;11.10;99.90
27026;DHT22;14565;48.626;8.978;2022-10-31T08:28:02;11.10;99.90
27026;DHT22;14565;48.626;8.978;2022-10-31T08:30:30;11.30;99.90
27026;DHT22;14565;48.626;8.978;2022-10-31T08:33:11;11.60;99.90
27026;DHT22;14565;48.626;8.978;2022-10-31T08:35:38;12.10;99.90
27026;DHT22;14565;48.626;8.978;2022-10-31T08:38:04;12.30;99.90
27026;DHT22;14565;48.626;8.978;2022-10-31T08:40:31;12.60;99.90
27026;DHT22;14565;48.626;8.978;2022-10-31T08:43:02;12.70;99.90
27026;DHT22;14565;48.626;8.978;2022-10-31T08:45:29;12.80;99.90
27026;DHT22;14565;48.626;8.978;2022-10-31T08:48:03;13.00;99.90
27026;DHT22;14565;48.626;8.978;2022-10-31T08:50:30;12.80;99.90
27026;DHT22;14565;48.626;8.978;2022-10-31T08:53:00;12.80;99.90
27026;DHT22;14565;48.626;8.978;2022-10-31T08:55:26;13.00;99.90
27026;DHT22;14565;48.626;8.978;2022-10-31T08:57:58;12.80;99.90
27026;DHT22;14565;48.626;8.978;2022-10-31T09:00:24;12.40;99.90
27026;DHT22;14565;48.626;8.978;2022-10-31T09:03:02;12.40;99.90
27026;DHT22;14565;48.626;8.978;2022-10-31T09:05:28;12.50;99.90
27026;DHT22;14565;48.626;8.978;2022-10-31T09:07:58;12.80;99.90
27026;DHT22;14565;48.626;8.978;2022-10-31T09:10:25;12.80;99.90
27026;DHT22;14565;48.626;8.978;2022-10-31T09:12:57;12.90;99.90
27026;DHT22;14565;48.626;8.978;2022-10-31T09:15:24;13.10;99.90
27026;DHT22;14565;48.626;8.978;2022-10-31T09:17:50;13.40;99.90
27026;DHT22;14565;48.626;8.978;2022-10-31T09:20:16;13.70;99.90
27026;DHT22;14565;48.626;8.978;2022-10-31T09:22:41;14.00;99.90
27026;DHT22;14565;48.626;8.978;2022-10-31T09:25:08;14.00;99.90
27026;DHT22;14565;48.626;8.978;2022-10-31T09:27:34;14.00;99.90
27026;DHT22;14565;48.626;8.978;2022-10-31T09:29:59;14.30;99.90
27026;DHT22;14565;48.626;8.978;2022-10-31T09:32:25;14.40;99.90
27026;DHT22;14565;48.626;8.978;2022-10-31T09:34:51;14.40;99.90
27026;DHT22;14565;48.626;8.978;2022-10-31T09:37:16;14.30;99.90
27026;DHT22;14565;48.626;8.978;2022-10-31T09:39:42;14.00;99.90
27026;DHT22;14565;48.626;8.978;2022-10-31T09:50:27;14.20;99.90
27026;DHT22;14565;48.626;8.978;2022-10-31T09:55:45;14.60;99.90
27026;DHT22;14565;48.626;8.978;2022-10-31T09:58:18;14.60;99.90
27026;DHT22;14565;48.626;8.978;2022-10-31T10:00:46;14.60;99.90
27026;DHT22;14565;48.626;8.978;2022-10-31T10:03:42;14.50;99.90
27026;DHT22;14565;48.626;8.978;2022-10-31T10:06:17;14.60;99.90
27026;DHT22;14565;48.626;8.978;2022-10-31T10:08:44;15.10;99.90
27026;DHT22;14565;48.626;8.978;2022-10-31T10:11:52;15.00;99.90
27026;DHT22;14565;48.626;8.978;2022-10-31T10:33:00;15.20;99.90
27026;DHT22;14565;48.626;8.978;2022-10-31T10:35:50;15.30;99.90
27026;DHT22;14565;48.626;8.978;2022-10-31T10:40:49;15.40;99.90
27026;DHT22;14565;48.626;8.978;2022-10-31T10:43:31;15.60;99.90
27026;DHT22;14565;48.626;8.978;2022-10-31T10:49:31;16.50;99.90
27026;DHT22;14565;48.626;8.978;2022-10-31T10:59:49;17.10;99.90
27026;DHT22;14565;48.626;8.978;2022-10-31T11:02:22;17.30;99.90
27026;DHT22;14565;48.626;8.978;2022-10-31T11:04:51;16.90;99.90
27026;DHT22;14565;48.626;8.978;2022-10-31T11:07:18;17.40;99.90
27026;DHT22;14565;48.626;8.978;2022-10-31T11:09:43;17.30;99.90
27026;DHT22;14565;48.626;8.978;2022-10-31T11:12:10;17.60;99.90
27026;DHT22;14565;48.626;8.978;2022-10-31T11:14:56;17.80;99.90
27026;DHT22;14565;48.626;8.978;2022-10-31T11:17:31;17.80;99.90
27026;DHT22;14565;48.626;8.978;2022-10-31T11:20:31;18.20;99.90
27026;DHT22;14565;48.626;8.978;2022-10-31T11:23:18;18.50;99.90
27026;DHT22;14565;48.626;8.978;2022-10-31T11:26:01;18.10;99.90
27026;DHT22;14565;48.626;8.978;2022-10-31T11:28:28;17.90;99.90
27026;DHT22;14565;48.626;8.978;2022-10-31T11:31:07;17.60;99.90
27026;DHT22;14565;48.626;8.978;2022-10-31T11:36:22;18.10;99.90
27026;DHT22;14565;48.626;8.978;2022-10-31T11:38:48;18.00;99.90
27026;DHT22;14565;48.626;8.978;2022-10-31T11:44:04;18.50;99.90
27026;DHT22;14565;48.626;8.978;2022-10-31T11:55:14;18.30;99.90
27026;DHT22;14565;48.626;8.978;2022-10-31T11:57:47;18.50;99.90
27026;DHT22;14565;48.626;8.978;2022-10-31T12:00:24;18.10;99.90
27026;DHT22;14565;48.626;8.978;2022-10-31T12:02:51;18.00;99.90
27026;DHT22;14565;48.626;8.978;2022-10-31T12:05:24;18.00;99.90
27026;DHT22;14565;48.626;8.978;2022-10-31T12:07:52;17.60;99.90
27026;DHT22;14565;48.626;8.978;2022-10-31T12:10:22;17.60;99.90
27026;DHT22;14565;48.626;8.978;2022-10-31T12:15:38;17.80;99.90
27026;DHT22;14565;48.626;8.978;2022-10-31T12:18:25;17.90;99.90
27026;DHT22;14565;48.626;8.978;2022-10-31T12:21:20;17.90;99.90
27026;DHT22;14565;48.626;8.978;2022-10-31T12:23:57;17.70;99.90
27026;DHT22;14565;48.626;8.978;2022-10-31T12:29:03;17.70;99.90
27026;DHT22;14565;48.626;8.978;2022-10-31T12:53:27;17.80;99.90
27026;DHT22;14565;48.626;8.978;2022-10-31T12:58:44;17.70;99.90
27026;DHT22;14565;48.626;8.978;2022-10-31T13:01:29;17.50;99.90
27026;DHT22;14565;48.626;8.978;2022-10-31T13:04:12;17.40;99.90
27026;DHT22;14565;48.626;8.978;2022-10-31T13:06:50;17.30;99.90
27026;DHT22;14565;48.626;8.978;2022-10-31T13:09:25;17.20;99.90
27026;DHT22;14565;48.626;8.978;2022-10-31T13:11:58;17.40;99.90
27026;DHT22;14565;48.626;8.978;2022-10-31T13:14:35;17.70;99.90
27026;DHT22;14565;48.626;8.978;2022-10-31T13:17:04;17.80;99.90
27026;DHT22;14565;48.626;8.978;2022-10-31T13:19:41;18.00;99.90
27026;DHT22;14565;48.626;8.978;2022-10-31T13:22:15;18.10;99.90
27026;DHT22;14565;48.626;8.978;2022-10-31T13:27:23;18.30;99.90
27026;DHT22;14565;48.626;8.978;2022-10-31T13:30:02;18.40;99.90
27026;DHT22;14565;48.626;8.978;2022-10-31T13:32:41;18.60;99.90
27026;DHT22;14565;48.626;8.978;2022-10-31T13:35:29;18.80;99.90
27026;DHT22;14565;48.626;8.978;2022-10-31T13:45:56;19.00;99.90
27026;DHT22;14565;48.626;8.978;2022-10-31T13:50:59;19.20;99.90
27026;DHT22;14565;48.626;8.978;2022-10-31T13:53:45;19.00;99.90
27026;DHT22;14565;48.626;8.978;2022-10-31T13:56:24;18.70;99.90
27026;DHT22;14565;48.626;8.978;2022-10-31T13:59:23;18.70;99.90
27026;DHT22;14565;48.626;8.978;2022-10-31T14:04:29;18.60;99.90
27026;DHT22;14565;48.626;8.978;2022-10-31T14:12:36;18.30;99.90
27026;DHT22;14565;48.626;8.978;2022-10-31T14:15:12;18.10;99.90
27026;DHT22;14565;48.626;8.978;2022-10-31T14:17:54;18.20;99.90
27026;DHT22;14565;48.626;8.978;2022-10-31T14:22:50;18.30;99.90
27026;DHT22;14565;48.626;8.978;2022-10-31T14:28:00;18.50;99.90
27026;DHT22;14565;48.626;8.978;2022-10-31T14:30:28;18.20;99.90
27026;DHT22;14565;48.626;8.978;2022-10-31T14:32:58;18.00;99.90
27026;DHT22;14565;48.626;8.978;2022-10-31T14:36:03;17.90;99.90
27026;DHT22;14565;48.626;8.978;2022-10-31T14:44:11;17.70;99.90
27026;DHT22;14565;48.626;8.978;2022-10-31T14:52:36;17.50;99.90
27026;DHT22;14565;48.626;8.978;2022-10-31T14:55:05;17.50;99.90
27026;DHT22;14565;48.626;8.978;2022-10-31T14:57:34;17.50;99.90
27026;DHT22;14565;48.626;8.978;2022-10-31T15:00:05;17.50;99.90
27026;DHT22;14565;48.626;8.978;2022-10-31T15:03:33;17.40;99.90
27026;DHT22;14565;48.626;8.978;2022-10-31T15:05:27;17.40;99.90
27026;DHT22;14565;48.626;8.978;2022-10-31T15:07:55;17.20;99.90
27026;DHT22;14565;48.626;8.978;2022-10-31T15:10:32;17.20;99.90
27026;DHT22;14565;48.626;8.978;2022-10-31T15:13:20;17.10;99.90
27026;DHT22;14565;48.626;8.978;2022-10-31T15:15:48;17.20;99.90
27026;DHT22;14565;48.626;8.978;2022-10-31T15:18:33;17.00;99.90
27026;DHT22;14565;48.626;8.978;2022-10-31T15:20:59;16.90;99.90
27026;DHT22;14565;48.626;8.978;2022-10-31T15:23:29;16.90;99.90
27026;DHT22;14565;48.626;8.978;2022-10-31T15:25:59;16.80;99.90
27026;DHT22;14565;48.626;8.978;2022-10-31T15:28:25;16.60;99.90
27026;DHT22;14565;48.626;8.978;2022-10-31T15:30:55;16.60;99.90
27026;DHT22;14565;48.626;8.978;2022-10-31T15:33:29;16.30;99.90
27026;DHT22;14565;48.626;8.978;2022-10-31T15:36:00;16.20;99.90
27026;DHT22;14565;48.626;8.978;2022-10-31T15:38:27;16.00;99.90
27026;DHT22;14565;48.626;8.978;2022-10-31T15:40:59;15.90;99.90
27026;DHT22;14565;48.626;8.978;2022-10-31T15:43:29;15.80;99.90
27026;DHT22;14565;48.626;8.978;2022-10-31T15:45:57;15.70;99.90
27026;DHT22;14565;48.626;8.978;2022-10-31T15:48:24;15.70;99.90
27026;DHT22;14565;48.626;8.978;2022-10-31T15:50:55;15.70;99.90
27026;DHT22;14565;48.626;8.978;2022-10-31T15:53:24;15.60;99.90
27026;DHT22;14565;48.626;8.978;2022-10-31T15:55:54;15.60;99.90
27026;DHT22;14565;48.626;8.978;2022-10-31T15:58:21;15.50;99.90
27026;DHT22;14565;48.626;8.978;2022-10-31T16:03:29;15.30;99.90
27026;DHT22;14565;48.626;8.978;2022-10-31T16:05:58;15.30;99.90
27026;DHT22;14565;48.626;8.978;2022-10-31T16:08:25;15.20;99.90
27026;DHT22;14565;48.626;8.978;2022-10-31T16:10:52;15.10;99.90
27026;DHT22;14565;48.626;8.978;2022-10-31T16:13:22;15.00;99.90
27026;DHT22;14565;48.626;8.978;2022-10-31T16:15:53;14.90;99.90
27026;DHT22;14565;48.626;8.978;2022-10-31T16:18:20;14.70;99.90
27026;DHT22;14565;48.626;8.978;2022-10-31T16:20:51;14.80;99.90
27026;DHT22;14565;48.626;8.978;2022-10-31T16:23:19;14.70;99.90
27026;DHT22;14565;48.626;8.978;2022-10-31T16:25:47;14.60;99.90
27026;DHT22;14565;48.626;8.978;2022-10-31T16:28:26;14.40;99.90
27026;DHT22;14565;48.626;8.978;2022-10-31T16:30:54;14.20;99.90
27026;DHT22;14565;48.626;8.978;2022-10-31T16:33:32;14.10;99.90
27026;DHT22;14565;48.626;8.978;2022-10-31T16:38:56;14.10;99.90
27026;DHT22;14565;48.626;8.978;2022-10-31T16:41:23;14.00;99.90
27026;DHT22;14565;48.626;8.978;2022-10-31T16:43:49;14.00;99.90
27026;DHT22;14565;48.626;8.978;2022-10-31T16:46:20;13.90;99.90
27026;DHT22;14565;48.626;8.978;2022-10-31T16:48:47;14.00;99.90
27026;DHT22;14565;48.626;8.978;2022-10-31T16:51:12;14.00;99.90
27026;DHT22;14565;48.626;8.978;2022-10-31T16:53:38;13.90;99.90
27026;DHT22;14565;48.626;8.978;2022-10-31T16:56:04;13.90;99.90
27026;DHT22;14565;48.626;8.978;2022-10-31T16:58:34;13.90;99.90
27026;DHT22;14565;48.626;8.978;2022-10-31T17:01:02;13.90;99.90
27026;DHT22;14565;48.626;8.978;2022-10-31T17:03:29;13.90;99.90
27026;DHT22;14565;48.626;8.978;2022-10-31T17:05:56;13.70;99.90
27026;DHT22;14565;48.626;8.978;2022-10-31T17:08:22;13.60;99.90
27026;DHT22;14565;48.626;8.978;2022-10-31T17:10:51;13.70;99.90
27026;DHT22;14565;48.626;8.978;2022-10-31T17:13:23;13.60;99.90
27026;DHT22;14565;48.626;8.978;2022-10-31T17:15:53;13.50;99.90
27026;DHT22;14565;48.626;8.978;2022-10-31T17:18:19;13.40;99.90
27026;DHT22;14565;48.626;8.978;2022-10-31T17:20:45;13.30;99.90
27026;DHT22;14565;48.626;8.978;2022-10-31T17:23:13;13.20;99.90
27026;DHT22;14565;48.626;8.978;2022-10-31T17:25:39;13.20;99.90
27026;DHT22;14565;48.626;8.978;2022-10-31T17:28:06;13.10;99.90
27026;DHT22;14565;48.626;8.978;2022-10-31T17:30:32;13.00;99.90
27026;DHT22;14565;48.626;8.978;2022-10-31T17:32:58;12.90;99.90
27026;DHT22;14565;48.626;8.978;2022-10-31T17:35:24;12.80;99.90
27026;DHT22;14565;48.626;8.978;2022-10-31T17:37:50;12.80;99.90
27026;DHT22;14565;48.626;8.978;2022-10-31T17:40:19;12.70;99.90
27026;DHT22;14565;48.626;8.978;2022-10-31T17:42:52;12.80;99.90
27026;DHT22;14565;48.626;8.978;2022-10-31T17:45:19;12.70;99.90
27026;DHT22;14565;48.626;8.978;2022-10-31T17:47:46;12.70;99.90
27026;DHT22;14565;48.626;8.978;2022-10-31T17:50:13;12.60;99.90
27026;DHT22;14565;48.626;8.978;2022-10-31T17:52:39;12.60;99.90
27026;DHT22;14565;48.626;8.978;2022-10-31T17:55:05;12.70;99.90
27026;DHT22;14565;48.626;8.978;2022-10-31T17:57:35;12.70;99.90
27026;DHT22;14565;48.626;8.978;2022-10-31T18:00:02;12.60;99.90
27026;DHT22;14565;48.626;8.978;2022-10-31T18:02:29;12.50;99.90
27026;DHT22;14565;48.626;8.978;2022-10-31T18:04:54;12.40;99.90
27026;DHT22;14565;48.626;8.978;2022-10-31T18:07:20;12.30;99.90
27026;DHT22;14565;48.626;8.978;2022-10-31T18:09:46;12.20;99.90
27026;DHT22;14565;48.626;8.978;2022-10-31T18:12:12;12.20;99.90
27026;DHT22;14565;48.626;8.978;2022-10-31T18:14:39;12.10;99.90
27026;DHT22;14565;48.626;8.978;2022-10-31T18:17:04;12.00;99.90
27026;DHT22;14565;48.626;8.978;2022-10-31T18:19:31;11.90;99.90
27026;DHT22;14565;48.626;8.978;2022-10-31T18:21:56;12.10;99.90
27026;DHT22;14565;48.626;8.978;2022-10-31T18:24:22;12.40;99.90
27026;DHT22;14565;48.626;8.978;2022-10-31T18:26:48;12.30;99.90
27026;DHT22;14565;48.626;8.978;2022-10-31T18:29:15;12.10;99.90
27026;DHT22;14565;48.626;8.978;2022-10-31T18:31:40;12.00;99.90
27026;DHT22;14565;48.626;8.978;2022-10-31T18:34:06;11.90;99.90
27026;DHT22;14565;48.626;8.978;2022-10-31T18:36:32;11.80;99.90
27026;DHT22;14565;48.626;8.978;2022-10-31T18:38:58;11.80;99.90
27026;DHT22;14565;48.626;8.978;2022-10-31T18:41:23;11.80;99.90
27026;DHT22;14565;48.626;8.978;2022-10-31T18:43:49;11.80;99.90